createdAt,value
2017-08-09T00:00:31.245Z,1.73
2017-08-09T00:02:59.513Z,1.70
2017-08-09T00:05:27.030Z,1.42
2017-08-09T00:07:54.522Z,1.87
2017-08-09T00:10:22.044Z,1.90
2017-08-09T00:12:49.529Z,1.52
2017-08-09T00:15:17.015Z,1.70
2017-08-09T00:17:45.295Z,1.70
2017-08-09T00:20:13.554Z,1.70
2017-08-09T00:22:41.066Z,1.85
2017-08-09T00:25:08.562Z,1.80
2017-08-09T00:27:36.074Z,1.50
2017-08-09T00:30:03.561Z,2.00
2017-08-09T00:32:31.075Z,2.30
2017-08-09T00:34:58.561Z,1.50
2017-08-09T00:37:26.070Z,1.60
2017-08-09T00:39:53.568Z,1.98
2017-08-09T00:42:21.091Z,2.00
2017-08-09T00:44:49.353Z,1.80
2017-08-09T00:47:16.846Z,1.55
2017-08-09T00:49:44.361Z,2.17
2017-08-09T00:52:11.851Z,1.80
2017-08-09T00:54:40.130Z,2.40
2017-08-09T00:57:08.386Z,1.95
2017-08-09T00:59:35.895Z,2.12
2017-08-09T01:02:03.393Z,1.98
2017-08-09T01:04:30.901Z,2.00
2017-08-09T01:06:58.399Z,2.05
2017-08-09T01:09:25.922Z,2.47
2017-08-09T01:11:53.423Z,1.75
2017-08-09T01:14:20.942Z,1.70
2017-08-09T01:16:48.439Z,1.45
2017-08-09T01:19:15.926Z,2.40
2017-08-09T01:21:44.206Z,1.85
2017-08-09T01:26:46.407Z,2.03
2017-08-09T01:29:13.902Z,1.95
2017-08-09T01:31:41.418Z,2.35
2017-08-09T01:34:09.673Z,2.15
2017-08-09T01:36:37.182Z,1.65
2017-08-09T01:39:04.678Z,2.20
2017-08-09T01:41:32.195Z,2.30
2017-08-09T01:43:59.698Z,2.65
2017-08-09T01:46:27.214Z,1.90
2017-08-09T01:48:54.702Z,1.95
2017-08-09T01:51:22.213Z,1.90
2017-08-09T01:53:49.738Z,2.00
2017-08-09T01:56:17.273Z,2.00
2017-08-09T01:58:44.772Z,1.70
2017-08-09T02:01:12.268Z,1.70
2017-08-09T02:03:39.783Z,2.20
2017-08-09T02:06:07.311Z,1.33
2017-08-09T02:08:34.819Z,1.75
2017-08-09T02:11:03.081Z,2.20
2017-08-09T02:13:30.589Z,1.80
2017-08-09T02:15:58.082Z,2.40
2017-08-09T02:18:25.605Z,2.22
2017-08-09T02:20:53.094Z,1.80
2017-08-09T02:23:20.597Z,2.30
2017-08-09T02:25:48.090Z,1.80
2017-08-09T02:28:15.598Z,2.10
2017-08-09T02:30:43.853Z,2.70
2017-08-09T02:33:11.375Z,1.90
2017-08-09T02:35:38.866Z,2.00
2017-08-09T02:38:06.362Z,2.83
2017-08-09T02:40:34.639Z,2.80
2017-08-09T02:43:02.133Z,2.83
2017-08-09T02:45:29.654Z,2.60
2017-08-09T02:47:57.915Z,2.75
2017-08-09T02:50:25.429Z,3.15
2017-08-09T02:52:52.923Z,3.15
2017-08-09T02:55:20.444Z,2.90
2017-08-09T02:57:47.938Z,3.55
2017-08-09T03:00:15.447Z,2.80
2017-08-09T03:02:42.945Z,2.80
2017-08-09T03:05:10.462Z,3.30
2017-08-09T03:07:37.953Z,3.08
2017-08-09T03:10:05.454Z,3.10
2017-08-09T03:12:33.724Z,3.33
2017-08-09T03:15:01.987Z,3.20
2017-08-09T03:17:29.498Z,3.10
2017-08-09T03:19:56.994Z,2.70
2017-08-09T03:22:24.501Z,3.72
2017-08-09T03:24:51.995Z,3.90
2017-08-09T03:27:19.524Z,3.58
2017-08-09T03:29:47.014Z,3.58
2017-08-09T03:32:14.525Z,3.00
2017-08-09T03:34:42.787Z,3.83
2017-08-09T03:37:11.074Z,3.03
2017-08-09T03:39:39.334Z,2.70
2017-08-09T03:42:06.826Z,3.00
2017-08-09T03:44:34.342Z,3.05
2017-08-09T03:47:01.838Z,2.90
2017-08-09T03:49:29.358Z,3.10
2017-08-09T03:51:56.851Z,3.10
2017-08-09T03:54:24.369Z,2.53
2017-08-09T03:56:51.854Z,2.90
2017-08-09T03:59:20.138Z,2.00
2017-08-09T04:01:48.409Z,2.25
2017-08-09T04:04:16.710Z,2.10
2017-08-09T04:06:44.199Z,2.03
2017-08-09T04:09:11.726Z,2.37
2017-08-09T04:11:39.218Z,1.90
2017-08-09T04:14:07.151Z,1.60
2017-08-09T04:16:34.662Z,1.58
2017-08-09T04:19:02.158Z,1.52
2017-08-09T04:21:30.598Z,1.65
2017-08-09T04:23:58.089Z,1.87
2017-08-09T04:26:26.366Z,2.22
2017-08-09T04:28:53.858Z,2.12
2017-08-09T04:31:21.370Z,1.35
2017-08-09T04:33:48.867Z,1.75
2017-08-09T04:36:16.377Z,1.60
2017-08-09T04:38:43.869Z,1.73
2017-08-09T04:41:12.146Z,1.90
2017-08-09T04:43:40.397Z,1.75
2017-08-09T04:46:07.888Z,1.70
2017-08-09T04:48:35.402Z,1.90
2017-08-09T04:51:02.898Z,1.85
2017-08-09T04:53:31.174Z,2.20
2017-08-09T04:55:59.434Z,1.80
2017-08-09T04:58:26.947Z,1.75
2017-08-09T05:00:54.434Z,2.15
2017-08-09T05:03:21.947Z,2.53
2017-08-09T05:05:49.449Z,1.98
2017-08-09T05:08:16.963Z,2.70
2017-08-09T05:10:44.453Z,2.03
2017-08-09T05:13:11.973Z,1.80
2017-08-09T05:15:39.470Z,2.47
2017-08-09T05:18:06.961Z,2.35
2017-08-09T05:20:34.475Z,1.70
2017-08-09T05:23:01.963Z,1.73
2017-08-09T05:25:29.465Z,2.47
2017-08-09T05:27:56.958Z,2.35
2017-08-09T05:30:24.466Z,1.90
2017-08-09T05:32:52.717Z,2.12
2017-08-09T05:35:20.231Z,2.10
2017-08-09T05:37:47.731Z,2.25
2017-08-09T05:40:15.247Z,2.20
2017-08-09T05:42:42.747Z,2.47
2017-08-09T05:45:10.250Z,2.90
2017-08-09T05:47:37.762Z,2.70
2017-08-09T05:50:05.258Z,2.75
2017-08-09T05:52:33.535Z,2.50
2017-08-09T05:55:01.794Z,3.00
2017-08-09T05:57:29.310Z,2.62
2017-08-09T05:59:56.815Z,3.00
2017-08-09T06:02:24.321Z,2.87
2017-08-09T06:04:51.810Z,2.60
2017-08-09T06:07:19.322Z,2.83
2017-08-09T06:09:46.819Z,3.00
2017-08-09T06:12:14.305Z,3.30
2017-08-09T06:14:41.813Z,2.70
2017-08-09T06:17:09.310Z,2.70
2017-08-09T06:19:36.823Z,2.90
2017-08-09T06:22:04.315Z,2.80
2017-08-09T06:24:31.822Z,2.80
2017-08-09T06:26:59.323Z,2.95
2017-08-09T06:29:26.834Z,3.78
2017-08-09T06:31:55.085Z,2.87
2017-08-09T06:34:22.594Z,3.45
2017-08-09T06:36:50.090Z,2.95
2017-08-09T06:39:17.582Z,3.10
2017-08-09T06:41:45.862Z,3.33
2017-08-09T06:44:14.120Z,3.17
2017-08-09T06:46:41.631Z,3.53
2017-08-09T06:49:09.136Z,2.75
2017-08-09T06:51:36.663Z,2.40
2017-08-09T06:54:04.163Z,2.33
2017-08-09T06:56:32.438Z,2.30
2017-08-09T06:58:59.930Z,2.10
2017-08-09T07:01:27.458Z,2.00
2017-08-09T07:03:55.724Z,1.50
2017-08-09T07:06:23.241Z,1.65
2017-08-09T07:08:50.734Z,1.67
2017-08-09T07:11:18.229Z,1.33
2017-08-09T07:13:45.745Z,1.95
2017-08-09T07:16:13.238Z,1.50
2017-08-09T07:18:40.762Z,1.90
2017-08-09T07:21:08.259Z,2.10
2017-08-09T07:23:35.774Z,1.95
2017-08-09T07:26:03.262Z,2.20
2017-08-09T07:28:31.542Z,2.40
2017-08-09T07:30:59.807Z,2.50
2017-08-09T07:33:27.318Z,2.30
2017-08-09T07:35:54.814Z,1.95
2017-08-09T07:38:22.330Z,1.98
2017-08-09T07:40:49.826Z,1.60
2017-08-09T07:43:17.316Z,1.60
2017-08-09T07:45:45.590Z,1.90
2017-08-09T07:48:13.842Z,1.50
2017-08-09T07:50:41.354Z,2.05
2017-08-09T07:53:08.842Z,1.60
2017-08-09T07:55:36.356Z,1.48
2017-08-09T07:58:04.615Z,1.83
2017-08-09T08:00:32.899Z,2.05
2017-08-09T08:03:01.167Z,1.60
2017-08-09T08:05:29.450Z,1.60
2017-08-09T08:07:57.711Z,1.62
2017-08-09T08:10:25.303Z,1.70
2017-08-09T08:12:52.861Z,1.77
2017-08-09T08:15:20.374Z,1.70
2017-08-09T08:17:47.883Z,1.80
2017-08-09T08:20:15.373Z,1.58
2017-08-09T08:22:42.896Z,1.92
2017-08-09T08:25:10.392Z,1.92
2017-08-09T08:27:37.906Z,1.75
2017-08-09T08:30:06.158Z,1.55
2017-08-09T08:32:33.672Z,1.77
2017-08-09T08:35:01.157Z,1.70
2017-08-09T08:37:28.670Z,2.22
2017-08-09T08:39:56.158Z,2.00
2017-08-09T08:42:23.652Z,1.85
2017-08-09T08:44:51.170Z,1.90
2017-08-09T08:47:18.670Z,1.80
2017-08-09T08:49:46.185Z,1.30
2017-08-09T08:52:13.679Z,1.40
2017-08-09T08:54:41.186Z,1.23
2017-08-09T08:57:08.679Z,1.60
2017-08-09T08:59:36.190Z,1.45
2017-08-09T09:02:04.442Z,1.45
2017-08-09T09:04:31.965Z,1.50
2017-08-09T09:06:59.454Z,1.65
2017-08-09T09:09:26.943Z,2.00
2017-08-09T09:11:54.471Z,1.77
2017-08-09T09:14:22.002Z,1.50
2017-08-09T09:16:49.522Z,1.10
2017-08-09T09:19:17.798Z,1.55
2017-08-09T09:21:46.077Z,1.70
2017-08-09T09:24:13.570Z,1.40
2017-08-09T09:26:41.082Z,1.40
2017-08-09T09:29:08.582Z,1.50
2017-08-09T09:31:36.090Z,1.55
2017-08-09T09:34:03.574Z,1.40
2017-08-09T09:36:31.094Z,1.30
2017-08-09T09:38:58.598Z,1.20
2017-08-09T09:41:26.094Z,1.95
2017-08-09T09:43:53.607Z,1.40
2017-08-09T09:46:21.110Z,1.75
2017-08-09T09:48:48.617Z,1.60
2017-08-09T09:51:16.877Z,1.55
2017-08-09T09:53:44.403Z,1.30
2017-08-09T09:56:11.898Z,1.70
2017-08-09T09:58:40.186Z,1.73
2017-08-09T10:01:07.679Z,1.50
2017-08-09T10:03:35.198Z,1.40
2017-08-09T10:06:03.453Z,1.30
2017-08-09T10:08:30.967Z,1.30
2017-08-09T10:10:58.477Z,1.33
2017-08-09T10:13:25.989Z,1.60
2017-08-09T10:15:53.482Z,1.45
2017-08-09T10:18:21.020Z,1.67
2017-08-09T10:20:48.510Z,1.40
2017-08-09T10:23:15.998Z,1.23
2017-08-09T10:25:43.535Z,1.35
2017-08-09T10:28:11.026Z,1.60
2017-08-09T10:30:38.538Z,1.20
2017-08-09T10:33:06.030Z,1.50
2017-08-09T10:35:34.316Z,1.20
2017-08-09T10:38:01.856Z,1.40
2017-08-09T10:40:29.367Z,2.45
2017-08-09T10:42:56.862Z,2.47
2017-08-09T10:45:24.381Z,3.17
2017-08-09T10:47:51.871Z,2.17
2017-08-09T10:50:19.383Z,1.67
2017-08-09T10:52:46.882Z,1.20
2017-08-09T10:55:14.398Z,1.23
2017-08-09T10:57:41.886Z,1.75
2017-08-09T11:00:09.378Z,1.65
2017-08-09T11:02:36.890Z,1.15
2017-08-09T11:05:04.393Z,1.30
2017-08-09T11:07:31.899Z,1.37
2017-08-09T11:09:59.390Z,1.08
2017-08-09T11:12:26.897Z,1.20
2017-08-09T11:14:55.154Z,1.10
2017-08-09T11:17:22.666Z,1.17
2017-08-09T11:19:50.214Z,1.20
2017-08-09T11:22:17.735Z,1.08
2017-08-09T11:24:46.020Z,1.12
2017-08-09T11:27:13.542Z,0.95
2017-08-09T11:29:41.039Z,1.15
2017-08-09T11:32:09.346Z,1.62
2017-08-09T11:34:36.843Z,1.30
2017-08-09T11:37:04.335Z,1.25
2017-08-09T11:39:32.614Z,1.30
2017-08-09T11:42:00.866Z,1.35
2017-08-09T11:44:28.373Z,1.17
2017-08-09T11:46:55.871Z,1.30
2017-08-09T11:49:23.383Z,1.25
2017-08-09T11:51:50.870Z,1.55
2017-08-09T11:54:18.375Z,1.55
2017-08-09T11:56:45.870Z,1.15
2017-08-09T11:59:13.378Z,1.27
2017-08-09T12:01:40.866Z,1.40
2017-08-09T12:04:08.373Z,1.10
2017-08-09T12:06:35.869Z,0.93
2017-08-09T12:09:04.161Z,1.00
2017-08-09T12:11:31.664Z,1.08
2017-08-09T12:13:59.158Z,1.00
2017-08-09T12:16:27.438Z,0.93
2017-08-09T12:18:54.956Z,1.00
2017-08-09T12:21:22.478Z,0.90
2017-08-09T12:23:49.978Z,0.90
2017-08-09T12:26:17.515Z,1.00
2017-08-09T12:28:45.015Z,1.00
2017-08-09T12:31:12.535Z,1.20
2017-08-09T12:33:40.035Z,1.20
2017-08-09T12:36:07.548Z,1.30
2017-08-09T12:38:35.038Z,1.00
2017-08-09T12:41:02.573Z,1.15
2017-08-09T12:43:30.070Z,1.30
2017-08-09T12:45:57.566Z,1.20
2017-08-09T12:48:25.078Z,1.30
2017-08-09T12:50:52.571Z,1.25
2017-08-09T12:53:20.085Z,1.25
2017-08-09T12:55:47.573Z,1.05
2017-08-09T12:58:15.087Z,1.30
2017-08-09T13:00:42.605Z,1.20
2017-08-09T13:03:10.119Z,1.00
2017-08-09T13:05:37.606Z,1.30
2017-08-09T13:08:05.118Z,0.90
2017-08-09T13:10:32.615Z,1.05
2017-08-09T13:13:00.159Z,1.17
2017-08-09T13:15:27.638Z,1.30
2017-08-09T13:17:55.131Z,1.27
2017-08-09T13:20:22.650Z,1.25
2017-08-09T13:22:50.146Z,1.10
2017-08-09T13:25:17.667Z,1.20
2017-08-09T13:27:45.169Z,1.62
2017-08-09T13:30:12.685Z,1.35
2017-08-09T13:32:40.182Z,1.40
2017-08-09T13:35:07.698Z,0.98
2017-08-09T13:37:35.205Z,1.48
2017-08-09T13:40:02.714Z,1.17
2017-08-09T13:42:30.210Z,1.30
2017-08-09T13:44:57.726Z,1.20
2017-08-09T13:47:25.218Z,1.50
2017-08-09T13:49:53.504Z,1.20
2017-08-09T13:52:21.786Z,1.20
2017-08-09T13:54:49.286Z,1.33
2017-08-09T13:57:16.796Z,1.30
2017-08-09T13:59:44.290Z,1.15
2017-08-09T14:02:11.797Z,1.10
2017-08-09T14:04:40.050Z,1.20
2017-08-09T14:07:07.567Z,1.12
2017-08-09T14:09:35.057Z,1.15
2017-08-09T14:12:02.598Z,1.20
2017-08-09T14:14:30.160Z,1.10
2017-08-09T14:16:57.655Z,1.20
2017-08-09T14:19:25.161Z,1.20
2017-08-09T14:21:53.502Z,1.00
2017-08-09T14:24:21.017Z,1.52
2017-08-09T14:26:48.525Z,0.90
2017-08-09T14:29:16.810Z,1.10
2017-08-09T14:31:45.069Z,1.10
2017-08-09T14:34:12.577Z,1.00
2017-08-09T14:36:40.069Z,1.20
2017-08-09T14:39:07.582Z,1.08
2017-08-09T14:41:35.147Z,1.05
2017-08-09T14:44:02.763Z,1.08
2017-08-09T14:46:31.045Z,1.20
2017-08-09T14:48:58.542Z,1.08
2017-08-09T14:51:26.067Z,1.27
2017-08-09T14:53:53.559Z,1.00
2017-08-09T14:56:21.390Z,1.45
2017-08-09T14:58:48.895Z,1.10
2017-08-09T15:01:16.411Z,1.10
2017-08-09T15:03:43.919Z,1.08
2017-08-09T15:06:11.435Z,0.90
2017-08-09T15:08:39.706Z,1.10
2017-08-09T15:13:41.978Z,1.40
2017-08-09T15:16:09.498Z,1.20
2017-08-09T15:18:37.001Z,1.50
2017-08-09T15:21:04.490Z,1.20
2017-08-09T15:23:32.014Z,1.20
2017-08-09T15:25:59.503Z,1.40
2017-08-09T15:28:27.018Z,1.17
2017-08-09T15:30:54.515Z,1.60
2017-08-09T15:33:22.030Z,1.42
2017-08-09T15:35:49.521Z,1.20
2017-08-09T15:38:17.034Z,1.10
2017-08-09T15:40:44.530Z,1.33
2017-08-09T15:43:12.043Z,1.10
2017-08-09T15:45:39.541Z,1.55
2017-08-09T15:48:07.030Z,1.45
2017-08-09T15:50:35.310Z,1.48
2017-08-09T15:53:02.810Z,1.48
2017-08-09T15:55:30.327Z,1.40
2017-08-09T15:57:58.594Z,1.30
2017-08-09T16:00:26.879Z,1.50
2017-08-09T16:02:55.133Z,1.30
2017-08-09T16:05:22.654Z,1.40
2017-08-09T16:07:50.157Z,1.30
2017-08-09T16:10:17.671Z,1.15
2017-08-09T16:12:45.157Z,1.27
2017-08-09T16:15:12.684Z,1.20
2017-08-09T16:17:40.183Z,1.20
2017-08-09T16:20:07.682Z,1.30
2017-08-09T16:22:35.195Z,1.30
2017-08-09T16:25:02.694Z,1.40
2017-08-09T16:27:30.202Z,1.10
2017-08-09T16:29:57.690Z,1.12
2017-08-09T16:32:25.961Z,1.40
2017-08-09T16:34:53.458Z,1.50
2017-08-09T16:37:20.965Z,1.23
2017-08-09T16:39:48.463Z,1.25
2017-08-09T16:42:15.978Z,1.15
2017-08-09T16:44:43.466Z,1.10
2017-08-09T16:47:10.973Z,1.50
2017-08-09T16:49:38.465Z,1.10
2017-08-09T16:52:05.985Z,1.58
2017-08-09T16:54:33.478Z,1.48
2017-08-09T16:57:00.970Z,1.40
2017-08-09T16:59:28.494Z,1.40
2017-08-09T17:01:55.992Z,1.60
2017-08-09T17:04:23.509Z,1.30
2017-08-09T17:06:51.007Z,1.70
2017-08-09T17:09:18.523Z,2.00
2017-08-09T17:11:46.018Z,1.50
2017-08-09T17:14:14.298Z,1.83
2017-08-09T17:16:42.558Z,1.85
2017-08-09T17:19:10.838Z,2.17
2017-08-09T17:21:39.097Z,1.75
2017-08-09T17:24:06.619Z,2.08
2017-08-09T17:26:34.112Z,2.55
2017-08-09T17:29:01.607Z,1.70
2017-08-09T17:31:29.123Z,1.50
2017-08-09T17:33:56.630Z,1.90
2017-08-09T17:36:24.146Z,2.05
2017-08-09T17:38:51.645Z,2.25
2017-08-09T17:41:19.154Z,1.85
2017-08-09T17:43:46.646Z,1.92
2017-08-09T17:46:14.929Z,1.80
2017-08-09T17:48:43.189Z,2.10
2017-08-09T17:51:10.706Z,1.90
2017-08-09T17:53:38.206Z,1.90
2017-08-09T17:56:05.717Z,2.10
2017-08-09T17:58:33.209Z,2.08
2017-08-09T18:01:00.694Z,1.87
2017-08-09T18:03:28.978Z,2.20
2017-08-09T18:05:57.239Z,2.05
2017-08-09T18:08:25.514Z,2.00
2017-08-09T18:10:53.000Z,2.17
2017-08-09T18:13:20.531Z,2.03
2017-08-09T18:15:48.018Z,1.87
2017-08-09T18:18:15.537Z,2.00
2017-08-09T18:20:43.042Z,2.40
2017-08-09T18:23:10.539Z,1.98
2017-08-09T18:25:38.054Z,2.17
2017-08-09T18:28:05.555Z,2.25
2017-08-09T18:30:33.062Z,2.05
2017-08-09T18:33:01.326Z,2.42
2017-08-09T18:35:29.615Z,1.95
2017-08-09T18:37:57.106Z,2.00
2017-08-09T18:40:24.610Z,1.73
2017-08-09T18:42:52.099Z,2.00
2017-08-09T18:45:19.605Z,1.90
2017-08-09T18:47:47.098Z,2.70
2017-08-09T18:50:15.376Z,1.75
2017-08-09T18:52:43.645Z,1.95
2017-08-09T18:55:11.930Z,2.10
2017-08-09T18:57:40.182Z,2.05
2017-08-09T19:00:07.674Z,2.45
2017-08-09T19:02:35.950Z,1.83
2017-08-09T19:05:04.206Z,2.08
2017-08-09T19:07:31.725Z,2.30
2017-08-09T19:09:59.223Z,2.40
2017-08-09T19:12:26.734Z,1.90
2017-08-09T19:14:54.230Z,1.83
2017-08-09T19:17:21.742Z,2.00
2017-08-09T19:19:49.241Z,2.05
2017-08-09T19:22:16.754Z,2.17
2017-08-09T19:24:44.250Z,2.28
2017-08-09T19:27:11.779Z,2.25
2017-08-09T19:29:39.275Z,2.00
2017-08-09T19:32:06.771Z,2.05
2017-08-09T19:34:34.281Z,2.10
2017-08-09T19:37:01.775Z,1.98
2017-08-09T19:39:30.062Z,2.15
2017-08-09T19:41:58.318Z,2.17
2017-08-09T19:44:26.606Z,2.08
2017-08-09T19:46:54.875Z,2.00
2017-08-09T19:49:22.386Z,1.95
2017-08-09T19:51:49.882Z,2.20
2017-08-09T19:54:17.410Z,2.17
2017-08-09T19:56:44.902Z,2.10
2017-08-09T19:59:12.402Z,2.72
2017-08-09T20:01:39.923Z,2.72
2017-08-09T20:04:07.422Z,2.15
2017-08-09T20:06:34.934Z,2.35
2017-08-09T20:09:02.439Z,2.60
2017-08-09T20:11:29.946Z,2.08
2017-08-09T20:13:57.438Z,2.70
2017-08-09T20:16:25.710Z,2.45
2017-08-09T20:18:53.971Z,2.20
2017-08-09T20:21:21.486Z,2.15
2017-08-09T20:23:48.982Z,2.47
2017-08-09T20:26:16.486Z,2.33
2017-08-09T20:28:43.974Z,2.30
2017-08-09T20:31:11.489Z,2.37
2017-08-09T20:33:39.751Z,2.45
2017-08-09T20:36:07.237Z,2.15
2017-08-09T20:38:34.751Z,2.42
2017-08-09T20:41:02.243Z,2.80
2017-08-09T20:43:30.521Z,2.75
2017-08-09T20:45:58.783Z,2.58
2017-08-09T20:48:27.061Z,2.35
2017-08-09T20:50:54.549Z,3.00
2017-08-09T20:53:22.066Z,2.40
2017-08-09T20:55:49.563Z,2.90
2017-08-09T20:58:17.073Z,3.10
2017-08-09T21:00:44.570Z,2.90
2017-08-09T21:03:12.092Z,2.97
2017-08-09T21:05:39.594Z,2.87
2017-08-09T21:08:07.085Z,3.12
2017-08-09T21:10:34.593Z,3.67
2017-08-09T21:13:02.849Z,3.80
2017-08-09T21:15:30.375Z,2.95
2017-08-09T21:17:57.866Z,3.72
2017-08-09T21:20:25.369Z,3.33
2017-08-09T21:22:52.857Z,2.70
2017-08-09T21:25:20.374Z,3.12
2017-08-09T21:27:47.931Z,2.72
2017-08-09T21:30:16.226Z,3.15
2017-08-09T21:32:43.729Z,2.75
2017-08-09T21:35:11.222Z,2.80
2017-08-09T21:37:39.498Z,3.30
2017-08-09T21:40:07.758Z,3.53
2017-08-09T21:42:35.270Z,3.50
2017-08-09T21:45:02.757Z,3.22
2017-08-09T21:47:30.270Z,3.72
2017-08-09T21:49:57.770Z,3.15
2017-08-09T21:52:25.278Z,3.42
2017-08-09T21:54:53.535Z,3.00
2017-08-09T21:57:21.058Z,3.95
2017-08-09T21:59:48.546Z,3.25
2017-08-09T22:02:16.039Z,3.80
2017-08-09T22:04:43.555Z,3.45
2017-08-09T22:07:11.051Z,3.10
2017-08-09T22:09:38.561Z,3.40
2017-08-09T22:12:06.055Z,3.33
2017-08-09T22:14:33.561Z,3.47
2017-08-09T22:17:01.063Z,3.40
2017-08-09T22:19:29.338Z,3.53
2017-08-09T22:21:56.830Z,4.37
2017-08-09T22:24:24.350Z,3.75
2017-08-09T22:26:51.851Z,3.20
2017-08-09T22:29:19.355Z,3.45
2017-08-09T22:31:46.866Z,3.05
2017-08-09T22:34:14.354Z,4.72
2017-08-09T22:36:41.863Z,4.12
2017-08-09T22:39:09.353Z,4.10
2017-08-09T22:41:36.857Z,4.15
2017-08-09T22:44:04.355Z,4.20
2017-08-09T22:46:31.870Z,4.10
2017-08-09T22:48:59.366Z,4.32
2017-08-09T22:51:26.885Z,4.37
2017-08-09T22:53:54.383Z,4.53
2017-08-09T22:56:21.874Z,4.60
2017-08-09T22:58:49.399Z,5.12
2017-08-09T23:01:16.894Z,4.40
2017-08-09T23:03:44.403Z,4.70
2017-08-09T23:06:12.666Z,5.65
2017-08-09T23:08:40.173Z,6.00
2017-08-09T23:11:07.670Z,5.82
2017-08-09T23:13:35.214Z,6.05
2017-08-09T23:16:02.708Z,5.87
2017-08-09T23:18:30.240Z,5.80
2017-08-09T23:20:57.746Z,5.47
2017-08-09T23:23:26.011Z,6.28
2017-08-09T23:25:54.293Z,6.30
2017-08-09T23:28:21.782Z,6.47
2017-08-09T23:30:49.303Z,7.20
2017-08-09T23:33:16.799Z,6.53
2017-08-09T23:35:44.310Z,6.90
2017-08-09T23:38:11.798Z,6.30
2017-08-09T23:40:39.305Z,6.90
2017-08-09T23:43:06.793Z,6.60
2017-08-09T23:45:34.305Z,6.40
2017-08-09T23:48:01.793Z,7.10
2017-08-09T23:50:29.305Z,7.40
2017-08-09T23:52:56.793Z,6.95
2017-08-09T23:55:24.309Z,8.57
2017-08-09T23:57:51.798Z,8.73
